createdAt,value
2019-03-24T00:02:30.218Z,102211.00
2019-03-24T00:05:01.420Z,102212.00
2019-03-24T00:07:33.727Z,102219.00
2019-03-24T00:10:05.631Z,102215.00
2019-03-24T00:12:37.138Z,102212.00
2019-03-24T00:15:09.107Z,102222.00
2019-03-24T00:17:40.140Z,102224.00
2019-03-24T00:20:11.714Z,102221.00
2019-03-24T00:22:43.028Z,102225.00
2019-03-24T00:25:14.671Z,102221.00
2019-03-24T00:27:46.406Z,102217.00
2019-03-24T00:30:18.062Z,102219.00
2019-03-24T00:32:49.478Z,102223.00
2019-03-24T00:35:20.993Z,102229.00
2019-03-24T00:37:52.237Z,102230.00
2019-03-24T00:40:23.358Z,102219.00
2019-03-24T00:42:54.750Z,102219.00
2019-03-24T00:45:36.264Z,102223.00
2019-03-24T00:48:04.765Z,102219.00
2019-03-24T00:50:35.931Z,102217.00
2019-03-24T00:53:07.046Z,102213.00
2019-03-24T00:55:38.160Z,102202.00
2019-03-24T00:58:09.397Z,102194.00
2019-03-24T01:00:49.685Z,102190.00
2019-03-24T01:03:21.180Z,102193.00
2019-03-24T01:05:52.253Z,102189.00
2019-03-24T01:08:23.455Z,102194.00
2019-03-24T01:10:54.565Z,102200.00
2019-03-24T01:13:25.871Z,102198.00
2019-03-24T01:15:56.964Z,102189.00
2019-03-24T01:18:28.118Z,102181.00
2019-03-24T01:20:59.374Z,102181.00
2019-03-24T01:23:30.764Z,102178.00
2019-03-24T01:26:02.377Z,102180.00
2019-03-24T01:28:33.886Z,102191.00
2019-03-24T01:31:05.001Z,102190.00
2019-03-24T01:33:36.657Z,102187.00
2019-03-24T01:36:07.734Z,102178.00
2019-03-24T01:38:38.897Z,102184.00
2019-03-24T01:41:10.006Z,102169.00
2019-03-24T01:43:41.385Z,102161.00
2019-03-24T01:46:12.469Z,102169.00
2019-03-24T01:48:43.983Z,102167.00
2019-03-24T01:51:15.209Z,102173.00
2019-03-24T01:53:46.166Z,102171.00
2019-03-24T01:56:17.244Z,102181.00
2019-03-24T01:58:48.892Z,102167.00
2019-03-24T02:01:20.340Z,102167.00
2019-03-24T02:03:51.485Z,102174.00
2019-03-24T02:06:22.804Z,102162.00
2019-03-24T02:08:53.997Z,102166.00
2019-03-24T02:11:25.126Z,102159.00
2019-03-24T02:13:56.274Z,102173.00
2019-03-24T02:16:27.335Z,102164.00
2019-03-24T02:18:58.381Z,102169.00
2019-03-24T02:21:29.667Z,102173.00
2019-03-24T02:24:00.877Z,102169.00
2019-03-24T02:26:32.047Z,102177.00
2019-03-24T02:29:03.494Z,102174.00
2019-03-24T02:31:34.620Z,102174.00
2019-03-24T02:34:05.739Z,102168.00
2019-03-24T02:36:36.822Z,102168.00
2019-03-24T02:39:09.466Z,102164.00
2019-03-24T02:41:41.029Z,102162.00
2019-03-24T02:44:12.146Z,102154.00
2019-03-24T02:46:43.268Z,102159.00
2019-03-24T02:49:14.638Z,102165.00
2019-03-24T02:51:46.059Z,102157.00
2019-03-24T02:54:17.222Z,102142.00
2019-03-24T02:56:48.411Z,102145.00
2019-03-24T02:59:19.566Z,102157.00
2019-03-24T03:01:51.408Z,102137.00
2019-03-24T03:04:22.514Z,102143.00
2019-03-24T03:06:53.666Z,102137.00
2019-03-24T03:09:24.833Z,102129.00
2019-03-24T03:11:55.848Z,102129.00
2019-03-24T03:14:27.004Z,102130.00
2019-03-24T03:16:58.117Z,102128.00
2019-03-24T03:19:29.436Z,102108.00
2019-03-24T03:22:04.998Z,102110.00
2019-03-24T03:24:35.919Z,102114.00
2019-03-24T03:27:06.945Z,102126.00
2019-03-24T03:29:38.167Z,102122.00
2019-03-24T03:32:09.558Z,102118.00
2019-03-24T03:34:40.732Z,102113.00
2019-03-24T03:37:12.095Z,102116.00
2019-03-24T03:39:43.162Z,102112.00
2019-03-24T03:42:14.557Z,102114.00
2019-03-24T03:44:45.665Z,102104.00
2019-03-24T03:47:16.966Z,102107.00
2019-03-24T03:49:48.048Z,102104.00
2019-03-24T03:52:19.209Z,102103.00
2019-03-24T03:54:50.643Z,102102.00
2019-03-24T03:57:21.786Z,102101.00
2019-03-24T03:59:53.284Z,102092.00
2019-03-24T04:02:24.656Z,102092.00
2019-03-24T04:04:55.731Z,102080.00
2019-03-24T04:07:26.825Z,102086.00
2019-03-24T04:09:58.245Z,102079.00
2019-03-24T04:12:29.486Z,102072.00
2019-03-24T04:15:01.115Z,102082.00
2019-03-24T04:17:32.456Z,102089.00
2019-03-24T04:20:03.581Z,102084.00
2019-03-24T04:22:37.346Z,102084.00
2019-03-24T04:25:08.653Z,102083.00
2019-03-24T04:27:40.090Z,102083.00
2019-03-24T04:30:11.885Z,102082.00
2019-03-24T04:32:43.067Z,102079.00
2019-03-24T04:35:14.247Z,102075.00
2019-03-24T04:37:49.921Z,102078.00
2019-03-24T04:40:21.048Z,102082.00
2019-03-24T04:42:52.789Z,102076.00
2019-03-24T04:45:23.887Z,102086.00
2019-03-24T04:47:55.154Z,102084.00
2019-03-24T04:50:26.915Z,102066.00
2019-03-24T04:52:58.459Z,102078.00
2019-03-24T04:55:29.628Z,102077.00
2019-03-24T04:58:01.223Z,102077.00
2019-03-24T05:00:42.053Z,102085.00
2019-03-24T05:03:13.222Z,102082.00
2019-03-24T05:05:44.693Z,102081.00
2019-03-24T05:08:16.927Z,102079.00
2019-03-24T05:10:48.380Z,102088.00
2019-03-24T05:13:19.772Z,102084.00
2019-03-24T05:15:50.892Z,102076.00
2019-03-24T05:18:22.202Z,102078.00
2019-03-24T05:20:53.601Z,102080.00
2019-03-24T05:23:24.493Z,102083.00
2019-03-24T05:25:55.559Z,102082.00
2019-03-24T05:28:27.030Z,102077.00
2019-03-24T05:30:58.350Z,102076.00
2019-03-24T05:33:31.913Z,102082.00
2019-03-24T05:36:03.539Z,102079.00
2019-03-24T05:38:34.701Z,102076.00
2019-03-24T05:41:05.817Z,102071.00
2019-03-24T05:43:37.351Z,102074.00
2019-03-24T05:46:08.366Z,102067.00
2019-03-24T05:48:42.182Z,102072.00
2019-03-24T05:51:13.726Z,102048.00
2019-03-24T05:53:44.749Z,102061.00
2019-03-24T05:56:16.273Z,102042.00
2019-03-24T05:58:47.417Z,102049.00
2019-03-24T06:01:18.539Z,102041.00
2019-03-24T06:03:49.572Z,102036.00
2019-03-24T06:06:20.698Z,102036.00
2019-03-24T06:08:52.018Z,102036.00
2019-03-24T06:11:23.127Z,102026.00
2019-03-24T06:13:54.245Z,102034.00
2019-03-24T06:16:25.621Z,102019.00
2019-03-24T06:18:57.644Z,102024.00
2019-03-24T06:21:31.186Z,102021.00
2019-03-24T06:24:02.535Z,102011.00
2019-03-24T06:26:33.882Z,102019.00
2019-03-24T06:29:05.083Z,102017.00
2019-03-24T06:31:36.168Z,102013.00
2019-03-24T06:34:07.261Z,102022.00
2019-03-24T06:36:38.493Z,102017.00
2019-03-24T06:39:10.194Z,102017.00
2019-03-24T06:41:41.829Z,102015.00
2019-03-24T06:44:12.857Z,102015.00
2019-03-24T06:46:44.017Z,102008.00
2019-03-24T06:49:15.399Z,102012.00
2019-03-24T06:51:46.424Z,102012.00
2019-03-24T06:54:17.567Z,102008.00
2019-03-24T06:56:48.583Z,102010.00
2019-03-24T06:59:19.654Z,102015.00
2019-03-24T07:01:51.042Z,102008.00
2019-03-24T07:04:22.477Z,102011.00
2019-03-24T07:06:53.640Z,102007.00
2019-03-24T07:09:24.706Z,102012.00
2019-03-24T07:11:55.797Z,102020.00
2019-03-24T07:14:26.767Z,102018.00
2019-03-24T07:16:58.123Z,102005.00
2019-03-24T07:19:29.545Z,102019.00
2019-03-24T07:22:00.650Z,102011.00
2019-03-24T07:24:32.270Z,102014.00
2019-03-24T07:27:03.299Z,102027.00
2019-03-24T07:29:34.635Z,102023.00
2019-03-24T07:32:05.686Z,102015.00
2019-03-24T07:34:37.255Z,102017.00
2019-03-24T07:37:08.452Z,102016.00
2019-03-24T07:39:39.506Z,102020.00
2019-03-24T07:42:10.603Z,102017.00
2019-03-24T07:44:42.221Z,102010.00
2019-03-24T07:47:16.288Z,102028.00
2019-03-24T07:49:47.391Z,102026.00
2019-03-24T07:52:18.850Z,102018.00
2019-03-24T07:54:50.031Z,102008.00
2019-03-24T07:57:21.401Z,102020.00
2019-03-24T07:59:52.554Z,102006.00
2019-03-24T08:02:24.167Z,102000.00
2019-03-24T08:04:55.404Z,102005.00
2019-03-24T08:07:26.521Z,102002.00
2019-03-24T08:09:57.588Z,101998.00
2019-03-24T08:12:28.984Z,102005.00
2019-03-24T08:15:00.211Z,101998.00
2019-03-24T08:17:31.412Z,102004.00
2019-03-24T08:20:02.340Z,101995.00
2019-03-24T08:22:33.743Z,101993.00
2019-03-24T08:25:07.164Z,101979.00
2019-03-24T08:27:38.281Z,101974.00
2019-03-24T08:30:09.721Z,101986.00
2019-03-24T08:32:40.829Z,101993.00
2019-03-24T08:35:12.390Z,101999.00
2019-03-24T08:37:43.402Z,101993.00
2019-03-24T08:40:15.011Z,101991.00
2019-03-24T08:42:46.395Z,101986.00
2019-03-24T08:45:27.500Z,101988.00
2019-03-24T08:47:59.051Z,101979.00
2019-03-24T08:50:33.758Z,101977.00
2019-03-24T08:53:05.170Z,101964.00
2019-03-24T08:55:36.246Z,101952.00
2019-03-24T08:58:07.341Z,101955.00
2019-03-24T09:00:39.494Z,101933.00
2019-03-24T09:03:10.620Z,101938.00
2019-03-24T09:05:42.214Z,101939.00
2019-03-24T09:08:13.289Z,101933.00
2019-03-24T09:10:44.607Z,101931.00
2019-03-24T09:13:16.752Z,101934.00
2019-03-24T09:15:48.386Z,101934.00
2019-03-24T09:18:21.186Z,101938.00
2019-03-24T09:20:52.270Z,101930.00
2019-03-24T09:23:23.671Z,101931.00
2019-03-24T09:25:55.495Z,101928.00
2019-03-24T09:28:27.060Z,101923.00
2019-03-24T09:30:58.476Z,101927.00
2019-03-24T09:33:29.842Z,101928.00
2019-03-24T09:36:01.300Z,101937.00
2019-03-24T09:38:41.492Z,101937.00
2019-03-24T09:41:12.732Z,101928.00
2019-03-24T09:43:44.332Z,101919.00
2019-03-24T09:46:15.669Z,101924.00
2019-03-24T09:48:46.678Z,101923.00
2019-03-24T09:51:17.873Z,101927.00
2019-03-24T09:53:49.037Z,101935.00
2019-03-24T09:56:20.545Z,101932.00
2019-03-24T09:58:51.709Z,101930.00
2019-03-24T10:01:23.107Z,101929.00
2019-03-24T10:03:54.312Z,101912.00
2019-03-24T10:06:26.365Z,101905.00
2019-03-24T10:08:57.819Z,101914.00
2019-03-24T10:11:28.827Z,101907.00
2019-03-24T10:14:00.030Z,101898.00
2019-03-24T10:16:31.114Z,101895.00
2019-03-24T10:19:02.185Z,101892.00
2019-03-24T10:21:33.621Z,101878.00
2019-03-24T10:24:07.837Z,101870.00
2019-03-24T10:26:38.440Z,101864.00
2019-03-24T10:29:09.865Z,101852.00
2019-03-24T10:31:42.619Z,101861.00
2019-03-24T10:34:13.664Z,101852.00
2019-03-24T10:36:44.698Z,101847.00
2019-03-24T10:39:21.802Z,101847.00
2019-03-24T10:41:53.147Z,101855.00
2019-03-24T10:44:24.408Z,101852.00
2019-03-24T10:46:55.546Z,101848.00
2019-03-24T10:49:27.191Z,101841.00
2019-03-24T10:51:58.617Z,101851.00
2019-03-24T10:54:30.646Z,101842.00
2019-03-24T10:57:01.821Z,101835.00
2019-03-24T10:59:32.938Z,101836.00
2019-03-24T11:02:04.164Z,101833.00
2019-03-24T11:04:35.490Z,101836.00
2019-03-24T11:07:06.506Z,101827.00
2019-03-24T11:09:37.778Z,101826.00
2019-03-24T11:12:09.229Z,101834.00
2019-03-24T11:14:40.850Z,101833.00
2019-03-24T11:17:12.049Z,101838.00
2019-03-24T11:19:45.184Z,101835.00
2019-03-24T11:22:16.425Z,101837.00
2019-03-24T11:24:47.962Z,101848.00
2019-03-24T11:27:19.114Z,101827.00
2019-03-24T11:29:50.359Z,101824.00
2019-03-24T11:32:21.633Z,101821.00
2019-03-24T11:34:52.681Z,101830.00
2019-03-24T11:37:24.379Z,101832.00
2019-03-24T11:39:55.393Z,101825.00
2019-03-24T11:42:26.519Z,101824.00
2019-03-24T11:44:57.814Z,101831.00
2019-03-24T11:47:29.216Z,101827.00
2019-03-24T11:50:00.548Z,101834.00
2019-03-24T11:52:31.680Z,101825.00
2019-03-24T11:55:03.601Z,101824.00
2019-03-24T11:57:35.009Z,101803.00
2019-03-24T12:00:07.609Z,101803.00
2019-03-24T12:02:38.981Z,101806.00
2019-03-24T12:05:13.531Z,101795.00
2019-03-24T12:07:44.705Z,101805.00
2019-03-24T12:10:17.774Z,101811.00
2019-03-24T12:12:49.259Z,101808.00
2019-03-24T12:15:20.394Z,101800.00
2019-03-24T12:17:51.525Z,101801.00
2019-03-24T12:20:22.804Z,101798.00
2019-03-24T12:22:54.308Z,101797.00
2019-03-24T12:25:25.782Z,101788.00
2019-03-24T12:27:57.736Z,101795.00
2019-03-24T12:30:42.275Z,101793.00
2019-03-24T12:33:14.442Z,101789.00
2019-03-24T12:35:45.590Z,101787.00
2019-03-24T12:38:16.948Z,101789.00
2019-03-24T12:40:48.031Z,101788.00
2019-03-24T12:43:19.956Z,101774.00
2019-03-24T12:45:51.629Z,101768.00
2019-03-24T12:48:22.966Z,101757.00
2019-03-24T12:50:54.100Z,101749.00
2019-03-24T12:53:25.272Z,101753.00
2019-03-24T12:55:56.428Z,101744.00
2019-03-24T12:58:27.391Z,101751.00
2019-03-24T13:00:58.928Z,101752.00
2019-03-24T13:03:29.930Z,101739.00
2019-03-24T13:06:01.530Z,101737.00
2019-03-24T13:08:32.490Z,101743.00
2019-03-24T13:11:05.719Z,101745.00
2019-03-24T13:13:36.903Z,101746.00
2019-03-24T13:16:07.967Z,101722.00
2019-03-24T13:18:39.029Z,101728.00
2019-03-24T13:21:10.104Z,101725.00
2019-03-24T13:23:41.176Z,101714.00
2019-03-24T13:26:12.292Z,101719.00
2019-03-24T13:28:43.730Z,101719.00
2019-03-24T13:31:15.130Z,101728.00
2019-03-24T13:33:46.942Z,101727.00
2019-03-24T13:36:18.247Z,101721.00
2019-03-24T13:38:49.678Z,101719.00
2019-03-24T13:41:20.790Z,101707.00
2019-03-24T13:43:52.152Z,101712.00
2019-03-24T13:46:23.586Z,101698.00
2019-03-24T13:48:54.652Z,101696.00
2019-03-24T13:51:26.057Z,101699.00
2019-03-24T13:53:57.896Z,101698.00
2019-03-24T13:56:29.285Z,101694.00
2019-03-24T13:59:00.620Z,101686.00
2019-03-24T14:01:32.253Z,101686.00
2019-03-24T14:04:03.432Z,101678.00
2019-03-24T14:06:34.805Z,101682.00
2019-03-24T14:09:08.252Z,101672.00
2019-03-24T14:11:39.361Z,101670.00
2019-03-24T14:14:10.892Z,101672.00
2019-03-24T14:16:42.222Z,101673.00
2019-03-24T14:19:13.379Z,101672.00
2019-03-24T14:21:44.887Z,101669.00
2019-03-24T14:24:16.269Z,101675.00
2019-03-24T14:26:47.658Z,101672.00
2019-03-24T14:29:18.706Z,101660.00
2019-03-24T14:31:49.762Z,101662.00
2019-03-24T14:34:21.144Z,101656.00
2019-03-24T14:36:52.161Z,101656.00
2019-03-24T14:39:23.315Z,101642.00
2019-03-24T14:41:54.446Z,101652.00
2019-03-24T14:44:25.550Z,101635.00
2019-03-24T14:46:56.663Z,101638.00
2019-03-24T14:49:28.006Z,101639.00
2019-03-24T14:51:59.075Z,101629.00
2019-03-24T14:54:30.251Z,101631.00
2019-03-24T14:57:01.394Z,101631.00
2019-03-24T14:59:32.836Z,101624.00
2019-03-24T15:02:03.881Z,101623.00
2019-03-24T15:04:34.847Z,101621.00
2019-03-24T15:07:06.428Z,101618.00
2019-03-24T15:09:37.570Z,101602.00
2019-03-24T15:12:08.702Z,101599.00
2019-03-24T15:14:40.365Z,101596.00
2019-03-24T15:17:11.594Z,101588.00
2019-03-24T15:19:42.649Z,101613.00
2019-03-24T15:22:13.749Z,101598.00
2019-03-24T15:24:44.843Z,101615.00
2019-03-24T15:27:16.220Z,101607.00
2019-03-24T15:29:47.533Z,101600.00
2019-03-24T15:32:18.617Z,101603.00
2019-03-24T15:34:49.982Z,101596.00
2019-03-24T15:37:21.459Z,101595.00
2019-03-24T15:39:52.598Z,101609.00
2019-03-24T15:42:23.722Z,101601.00
2019-03-24T15:44:54.863Z,101586.00
2019-03-24T15:47:26.157Z,101593.00
2019-03-24T15:49:57.277Z,101579.00
2019-03-24T15:52:28.301Z,101582.00
2019-03-24T15:54:59.637Z,101583.00
2019-03-24T15:57:30.792Z,101590.00
2019-03-24T16:00:02.228Z,101592.00
2019-03-24T16:02:33.409Z,101578.00
2019-03-24T16:05:04.858Z,101590.00
2019-03-24T16:07:36.284Z,101577.00
2019-03-24T16:10:08.141Z,101585.00
2019-03-24T16:12:39.252Z,101585.00
2019-03-24T16:15:11.111Z,101579.00
2019-03-24T16:17:42.536Z,101570.00
2019-03-24T16:20:13.596Z,101576.00
2019-03-24T16:22:44.719Z,101579.00
2019-03-24T16:25:15.848Z,101575.00
2019-03-24T16:27:46.861Z,101570.00
2019-03-24T16:30:18.105Z,101566.00
2019-03-24T16:32:49.440Z,101565.00
2019-03-24T16:35:20.579Z,101573.00
2019-03-24T16:37:51.708Z,101559.00
2019-03-24T16:40:22.754Z,101544.00
2019-03-24T16:42:53.814Z,101550.00
2019-03-24T16:45:24.902Z,101553.00
2019-03-24T16:47:55.904Z,101550.00
2019-03-24T16:50:27.314Z,101548.00
2019-03-24T16:52:58.445Z,101551.00
2019-03-24T16:55:29.547Z,101554.00
2019-03-24T16:58:00.558Z,101553.00
2019-03-24T17:00:31.952Z,101545.00
2019-03-24T17:03:03.287Z,101554.00
2019-03-24T17:05:34.211Z,101554.00
2019-03-24T17:08:05.352Z,101554.00
2019-03-24T17:10:36.477Z,101546.00
2019-03-24T17:13:07.614Z,101543.00
2019-03-24T17:15:38.691Z,101539.00
2019-03-24T17:18:09.862Z,101544.00
2019-03-24T17:20:41.000Z,101547.00
2019-03-24T17:23:12.931Z,101545.00
2019-03-24T17:25:44.054Z,101540.00
2019-03-24T17:28:15.062Z,101545.00
2019-03-24T17:30:46.296Z,101539.00
2019-03-24T17:33:17.974Z,101540.00
2019-03-24T17:35:50.245Z,101530.00
2019-03-24T17:38:21.648Z,101538.00
2019-03-24T17:40:53.235Z,101541.00
2019-03-24T17:43:24.406Z,101543.00
2019-03-24T17:45:55.794Z,101534.00
2019-03-24T17:48:27.023Z,101535.00
2019-03-24T17:50:58.537Z,101522.00
2019-03-24T17:53:29.764Z,101523.00
2019-03-24T17:56:01.037Z,101524.00
2019-03-24T17:58:32.377Z,101525.00
2019-03-24T18:01:03.589Z,101531.00
2019-03-24T18:03:34.545Z,101520.00
2019-03-24T18:06:05.712Z,101522.00
2019-03-24T18:08:36.833Z,101517.00
2019-03-24T18:11:07.929Z,101519.00
2019-03-24T18:13:39.133Z,101521.00
2019-03-24T18:16:10.885Z,101525.00
2019-03-24T18:18:42.137Z,101528.00
2019-03-24T18:21:13.235Z,101517.00
2019-03-24T18:23:44.632Z,101520.00
2019-03-24T18:26:15.701Z,101511.00
2019-03-24T18:28:47.119Z,101508.00
2019-03-24T18:31:18.174Z,101517.00
2019-03-24T18:33:49.310Z,101522.00
2019-03-24T18:36:20.401Z,101518.00
2019-03-24T18:38:51.520Z,101515.00
2019-03-24T18:41:22.640Z,101513.00
2019-03-24T18:43:54.075Z,101517.00
2019-03-24T18:46:25.236Z,101521.00
2019-03-24T18:48:56.364Z,101518.00
2019-03-24T18:51:27.498Z,101516.00
2019-03-24T18:53:58.643Z,101509.00
2019-03-24T18:56:29.722Z,101514.00
2019-03-24T18:59:00.747Z,101516.00
2019-03-24T19:01:32.070Z,101512.00
2019-03-24T19:04:03.373Z,101521.00
2019-03-24T19:06:34.373Z,101513.00
2019-03-24T19:09:07.859Z,101519.00
2019-03-24T19:11:38.971Z,101522.00
2019-03-24T19:14:10.383Z,101522.00
2019-03-24T19:16:41.851Z,101519.00
2019-03-24T19:19:12.946Z,101519.00
2019-03-24T19:21:45.489Z,101530.00
2019-03-24T19:24:16.770Z,101534.00
2019-03-24T19:26:48.113Z,101526.00
2019-03-24T19:29:19.612Z,101518.00
2019-03-24T19:31:50.998Z,101514.00
2019-03-24T19:34:22.450Z,101510.00
2019-03-24T19:36:53.814Z,101516.00
2019-03-24T19:39:25.420Z,101503.00
2019-03-24T19:41:56.559Z,101508.00
2019-03-24T19:44:27.633Z,101505.00
2019-03-24T19:46:58.916Z,101500.00
2019-03-24T19:49:30.119Z,101516.00
2019-03-24T19:52:01.603Z,101504.00
2019-03-24T19:54:33.059Z,101507.00
2019-03-24T19:57:04.131Z,101509.00
2019-03-24T19:59:35.331Z,101507.00
2019-03-24T20:02:06.456Z,101496.00
2019-03-24T20:04:38.080Z,101494.00
2019-03-24T20:07:09.537Z,101484.00
2019-03-24T20:09:40.886Z,101482.00
2019-03-24T20:12:12.143Z,101473.00
2019-03-24T20:14:43.663Z,101467.00
2019-03-24T20:17:14.794Z,101471.00
2019-03-24T20:19:46.696Z,101471.00
2019-03-24T20:22:18.008Z,101475.00
2019-03-24T20:24:49.462Z,101479.00
2019-03-24T20:27:20.511Z,101470.00
2019-03-24T20:29:51.548Z,101465.00
2019-03-24T20:32:22.980Z,101457.00
2019-03-24T20:34:54.210Z,101461.00
2019-03-24T20:37:25.370Z,101469.00
2019-03-24T20:39:56.284Z,101463.00
2019-03-24T20:42:27.419Z,101447.00
2019-03-24T20:44:58.503Z,101463.00
2019-03-24T20:47:29.588Z,101456.00
2019-03-24T20:50:03.762Z,101458.00
2019-03-24T20:52:33.996Z,101457.00
2019-03-24T20:55:05.706Z,101451.00
2019-03-24T20:57:37.059Z,101452.00
2019-03-24T21:00:10.063Z,101448.00
2019-03-24T21:02:41.393Z,101443.00
2019-03-24T21:05:12.865Z,101444.00
2019-03-24T21:07:44.111Z,101435.00
2019-03-24T21:10:15.618Z,101433.00
2019-03-24T21:12:46.928Z,101427.00
2019-03-24T21:15:18.045Z,101433.00
2019-03-24T21:17:49.452Z,101435.00
2019-03-24T21:20:20.869Z,101429.00
2019-03-24T21:22:52.712Z,101417.00
2019-03-24T21:25:23.761Z,101422.00
2019-03-24T21:27:54.895Z,101415.00
2019-03-24T21:30:37.012Z,101412.00
2019-03-24T21:33:08.455Z,101414.00
2019-03-24T21:35:40.033Z,101413.00
2019-03-24T21:38:11.117Z,101409.00
2019-03-24T21:40:42.471Z,101409.00
2019-03-24T21:43:28.880Z,101413.00
2019-03-24T21:45:59.979Z,101413.00
2019-03-24T21:48:31.110Z,101409.00
2019-03-24T21:51:02.210Z,101402.00
2019-03-24T21:53:40.608Z,101392.00
2019-03-24T21:56:06.088Z,101390.00
2019-03-24T21:58:37.160Z,101385.00
2019-03-24T22:01:08.298Z,101380.00
2019-03-24T22:03:39.346Z,101379.00
2019-03-24T22:06:10.757Z,101382.00
2019-03-24T22:08:43.055Z,101376.00
2019-03-24T22:11:14.111Z,101375.00
2019-03-24T22:13:45.565Z,101368.00
2019-03-24T22:16:16.650Z,101365.00
2019-03-24T22:18:58.417Z,101367.00
2019-03-24T22:21:29.559Z,101367.00
2019-03-24T22:24:01.143Z,101351.00
2019-03-24T22:26:32.342Z,101350.00
2019-03-24T22:29:03.387Z,101345.00
2019-03-24T22:31:34.584Z,101347.00
2019-03-24T22:34:06.034Z,101342.00
2019-03-24T22:36:37.872Z,101329.00
2019-03-24T22:39:09.784Z,101322.00
2019-03-24T22:41:40.847Z,101323.00
2019-03-24T22:44:11.905Z,101307.00
2019-03-24T22:46:43.033Z,101306.00
2019-03-24T22:49:14.178Z,101301.00
2019-03-24T22:51:45.378Z,101292.00
2019-03-24T22:54:16.891Z,101283.00
2019-03-24T22:56:48.254Z,101277.00
2019-03-24T22:59:19.453Z,101276.00
2019-03-24T23:01:50.637Z,101277.00
2019-03-24T23:04:22.043Z,101267.00
2019-03-24T23:06:53.233Z,101265.00
2019-03-24T23:09:24.312Z,101256.00
2019-03-24T23:11:55.486Z,101260.00
2019-03-24T23:14:26.576Z,101250.00
2019-03-24T23:16:57.603Z,101252.00
2019-03-24T23:19:28.775Z,101252.00
2019-03-24T23:22:00.208Z,101243.00
2019-03-24T23:24:31.463Z,101231.00
2019-03-24T23:27:02.897Z,101228.00
2019-03-24T23:29:34.013Z,101212.00
2019-03-24T23:32:05.150Z,101203.00
2019-03-24T23:34:36.182Z,101201.00
2019-03-24T23:37:07.166Z,101194.00
2019-03-24T23:39:38.554Z,101193.00
2019-03-24T23:42:09.782Z,101186.00
2019-03-24T23:44:41.106Z,101173.00
2019-03-24T23:47:12.226Z,101174.00
2019-03-24T23:49:43.307Z,101167.00
2019-03-24T23:52:14.776Z,101164.00
2019-03-24T23:54:46.744Z,101152.00
2019-03-24T23:57:17.992Z,101151.00
2019-03-24T23:59:49.023Z,101149.00
